createdAt,value
2019-05-11T00:00:08.759Z,56.9
2019-05-11T00:02:24.889Z,49.6
2019-05-11T00:03:25.584Z,48.9
2019-05-11T00:04:26.274Z,48.9
2019-05-11T00:05:26.963Z,49.1
2019-05-11T00:06:27.662Z,48.4
2019-05-11T00:08:43.833Z,47.5
2019-05-11T00:09:57.551Z,50.6
2019-05-11T00:10:45.225Z,52.9
2019-05-11T00:11:45.920Z,51.6
2019-05-11T00:12:46.615Z,50.8
2019-05-11T00:13:47.310Z,51.6
2019-05-11T00:14:47.994Z,50.6
2019-05-11T00:15:48.687Z,49.0
2019-05-11T00:16:49.407Z,54.1
2019-05-11T00:19:05.555Z,51.6
2019-05-11T00:20:06.250Z,53.5
2019-05-11T00:21:06.947Z,56.2
2019-05-11T00:22:07.646Z,55.7
2019-05-11T00:23:08.346Z,55.6
2019-05-11T00:24:09.036Z,52.4
2019-05-11T00:25:09.743Z,53.7
2019-05-11T00:27:25.927Z,54.7
2019-05-11T00:28:26.595Z,52.8
2019-05-11T00:29:27.336Z,50.3
2019-05-11T00:30:27.992Z,52.3
2019-05-11T00:31:28.691Z,52.0
2019-05-11T00:32:29.387Z,48.1
2019-05-11T00:33:30.102Z,53.7
2019-05-11T00:34:30.790Z,55.6
2019-05-11T00:35:31.476Z,53.5
2019-05-11T00:36:32.175Z,55.6
2019-05-11T00:38:48.375Z,48.8
2019-05-11T00:39:49.066Z,49.8
2019-05-11T00:40:49.765Z,51.6
2019-05-11T00:41:50.457Z,54.0
2019-05-11T00:42:51.151Z,53.1
2019-05-11T00:43:51.845Z,50.7
2019-05-11T00:44:52.539Z,51.3
2019-05-11T00:45:53.229Z,48.7
2019-05-11T00:46:53.923Z,51.3
2019-05-11T00:51:41.047Z,50.0
2019-05-11T00:52:41.747Z,49.6
2019-05-11T00:53:42.451Z,52.5
2019-05-11T00:54:43.152Z,53.0
2019-05-11T00:55:43.842Z,52.1
2019-05-11T00:56:44.547Z,52.6
2019-05-11T00:57:45.240Z,50.5
2019-05-11T00:58:45.935Z,51.2
2019-05-11T00:59:46.634Z,51.9
2019-05-11T01:02:02.799Z,49.6
2019-05-11T01:03:03.506Z,50.0
2019-05-11T01:04:04.185Z,53.7
2019-05-11T01:05:04.899Z,55.0
2019-05-11T01:06:05.579Z,53.5
2019-05-11T01:07:06.329Z,52.5
2019-05-11T01:08:06.972Z,54.3
2019-05-11T01:09:07.668Z,57.5
2019-05-11T01:11:23.841Z,53.2
2019-05-11T01:12:24.505Z,59.1
2019-05-11T01:13:25.205Z,54.4
2019-05-11T01:14:25.894Z,50.4
2019-05-11T01:15:26.585Z,57.3
2019-05-11T01:16:27.273Z,54.3
2019-05-11T01:17:27.966Z,51.2
2019-05-11T01:18:28.662Z,53.5
2019-05-11T01:19:29.369Z,53.2
2019-05-11T01:20:30.065Z,53.6
2019-05-11T01:21:30.757Z,51.1
2019-05-11T01:22:31.455Z,54.5
2019-05-11T01:23:32.148Z,52.1
2019-05-11T01:24:32.857Z,54.2
2019-05-11T01:26:49.019Z,52.4
2019-05-11T01:27:49.793Z,53.3
2019-05-11T01:28:50.422Z,51.3
2019-05-11T01:31:06.608Z,52.7
2019-05-11T01:32:07.300Z,51.1
2019-05-11T01:33:08.087Z,53.2
2019-05-11T01:34:09.103Z,52.0
2019-05-11T01:35:09.705Z,52.5
2019-05-11T01:36:10.400Z,51.9
2019-05-11T01:37:11.098Z,53.8
2019-05-11T01:38:11.803Z,53.8
2019-05-11T01:40:27.980Z,55.0
2019-05-11T01:41:28.707Z,55.8
2019-05-11T01:42:29.368Z,54.7
2019-05-11T01:43:30.063Z,60.4
2019-05-11T01:44:30.760Z,60.4
2019-05-11T01:50:33.444Z,58.5
2019-05-11T01:51:34.143Z,55.8
2019-05-11T01:56:21.262Z,63.4
2019-05-11T01:57:21.952Z,56.3
2019-05-11T01:58:22.643Z,57.0
2019-05-11T01:59:23.338Z,59.8
2019-05-11T02:00:24.050Z,55.6
2019-05-11T02:01:24.799Z,56.9
2019-05-11T02:02:25.496Z,56.1
2019-05-11T02:03:26.235Z,57.1
2019-05-11T02:05:42.410Z,58.1
2019-05-11T02:06:43.110Z,59.0
2019-05-11T02:07:43.806Z,55.3
2019-05-11T02:08:44.491Z,56.4
2019-05-11T02:09:45.183Z,60.5
2019-05-11T02:10:45.878Z,57.2
2019-05-11T02:11:46.622Z,55.2
2019-05-11T02:12:47.286Z,54.0
2019-05-11T02:15:03.463Z,53.7
2019-05-11T02:16:04.148Z,50.3
2019-05-11T02:17:04.843Z,51.3
2019-05-11T02:18:05.537Z,49.2
2019-05-11T02:19:06.233Z,53.2
2019-05-11T02:20:06.928Z,51.6
2019-05-11T02:21:07.622Z,52.4
2019-05-11T02:22:08.315Z,53.4
2019-05-11T02:23:09.009Z,52.6
2019-05-11T02:25:25.195Z,56.1
2019-05-11T02:26:25.939Z,56.9
2019-05-11T02:27:26.584Z,62.5
2019-05-11T02:28:27.283Z,56.1
2019-05-11T02:29:27.979Z,56.7
2019-05-11T02:30:28.689Z,56.8
2019-05-11T02:31:29.441Z,54.5
2019-05-11T02:32:30.138Z,56.3
2019-05-11T02:33:30.902Z,52.7
2019-05-11T02:34:31.652Z,55.8
2019-05-11T02:36:47.832Z,57.1
2019-05-11T02:37:48.521Z,55.0
2019-05-11T02:38:49.208Z,54.8
2019-05-11T02:39:49.903Z,55.8
2019-05-11T02:40:50.596Z,61.9
2019-05-11T02:41:51.305Z,66.7
2019-05-11T02:42:51.989Z,63.5
2019-05-11T02:43:52.686Z,66.6
2019-05-11T02:46:09.058Z,59.7
2019-05-11T02:47:09.764Z,62.3
2019-05-11T02:48:10.441Z,60.9
2019-05-11T02:49:11.136Z,63.6
2019-05-11T02:50:11.836Z,59.0
2019-05-11T02:51:12.532Z,57.6
2019-05-11T02:52:13.226Z,57.4
2019-05-11T02:53:13.918Z,56.9
2019-05-11T02:55:30.129Z,52.0
2019-05-11T02:56:30.805Z,54.0
2019-05-11T02:57:31.503Z,50.8
2019-05-11T02:58:32.201Z,53.6
2019-05-11T02:59:32.897Z,48.4
2019-05-11T03:00:33.596Z,48.9
2019-05-11T03:01:34.295Z,49.1
2019-05-11T03:02:35.004Z,51.5
2019-05-11T03:03:35.702Z,51.2
2019-05-11T03:04:36.408Z,54.7
2019-05-11T03:06:52.588Z,57.3
2019-05-11T03:07:53.271Z,63.5
2019-05-11T03:08:54.006Z,57.4
2019-05-11T03:11:10.162Z,60.9
2019-05-11T03:13:26.313Z,63.1
2019-05-11T03:14:27.009Z,55.6
2019-05-11T03:15:27.697Z,60.6
2019-05-11T03:16:28.412Z,58.6
2019-05-11T03:18:44.553Z,61.3
2019-05-11T03:19:45.245Z,62.6
2019-05-11T03:20:45.937Z,66.7
2019-05-11T03:21:46.659Z,59.4
2019-05-11T03:22:47.363Z,62.8
2019-05-11T03:23:48.049Z,67.4
2019-05-11T03:24:48.752Z,60.2
2019-05-11T03:25:49.458Z,66.6
2019-05-11T03:26:50.142Z,63.0
2019-05-11T03:27:50.838Z,65.6
2019-05-11T03:30:07.016Z,63.2
2019-05-11T03:31:07.717Z,64.5
2019-05-11T03:32:08.421Z,66.5
2019-05-11T03:33:09.107Z,71.1
2019-05-11T03:34:09.805Z,65.3
2019-05-11T03:35:10.514Z,66.3
2019-05-11T03:36:11.172Z,62.9
2019-05-11T03:37:11.871Z,67.4
2019-05-11T03:38:12.571Z,71.0
2019-05-11T03:40:28.743Z,74.8
2019-05-11T03:41:29.462Z,76.0
2019-05-11T03:42:30.144Z,79.9
2019-05-11T03:43:30.841Z,78.4
2019-05-11T03:44:31.538Z,72.1
2019-05-11T03:45:32.257Z,75.2
2019-05-11T03:46:32.943Z,76.8
2019-05-11T03:47:33.644Z,79.6
2019-05-11T03:48:34.345Z,78.8
2019-05-11T03:49:35.039Z,76.0
2019-05-11T03:50:35.733Z,78.0
2019-05-11T03:52:51.912Z,78.4
2019-05-11T03:53:53.081Z,80.4
2019-05-11T03:54:53.693Z,78.7
2019-05-11T03:58:26.604Z,78.9
2019-05-11T03:59:26.045Z,80.7
2019-05-11T04:00:26.737Z,73.1
2019-05-11T04:02:42.996Z,71.0
2019-05-11T04:03:43.721Z,74.1
2019-05-11T04:04:44.407Z,77.8
2019-05-11T04:05:45.099Z,70.1
2019-05-11T04:06:45.803Z,79.4
2019-05-11T04:07:46.505Z,75.2
2019-05-11T04:08:47.203Z,79.5
2019-05-11T04:09:47.897Z,72.5
2019-05-11T04:10:48.599Z,74.5
2019-05-11T04:11:49.293Z,76.2
2019-05-11T04:14:05.462Z,76.2
2019-05-11T04:15:06.165Z,67.5
2019-05-11T04:16:06.876Z,70.7
2019-05-11T04:17:07.565Z,70.5
2019-05-11T04:18:08.262Z,78.1
2019-05-11T04:19:08.970Z,78.7
2019-05-11T04:20:09.702Z,77.5
2019-05-11T04:21:10.347Z,78.8
2019-05-11T04:22:11.047Z,75.2
2019-05-11T04:24:27.232Z,74.3
2019-05-11T04:25:27.938Z,67.4
2019-05-11T04:26:28.638Z,66.7
2019-05-11T04:27:29.336Z,60.8
2019-05-11T04:28:30.034Z,63.6
2019-05-11T04:29:30.730Z,64.4
2019-05-11T04:30:31.439Z,62.8
2019-05-11T04:32:47.620Z,63.2
2019-05-11T04:33:48.346Z,65.3
2019-05-11T04:34:49.083Z,69.0
2019-05-11T04:35:49.758Z,69.8
2019-05-11T04:36:50.456Z,67.4
2019-05-11T04:37:51.155Z,64.5
2019-05-11T04:38:51.859Z,62.0
2019-05-11T04:39:52.620Z,67.6
2019-05-11T04:42:08.800Z,66.7
2019-05-11T04:43:09.509Z,66.2
2019-05-11T04:44:10.198Z,69.9
2019-05-11T04:45:10.900Z,68.1
2019-05-11T04:46:11.604Z,66.0
2019-05-11T04:47:12.295Z,60.0
2019-05-11T04:49:28.477Z,50.0
2019-05-11T04:50:29.181Z,49.7
2019-05-11T04:51:29.878Z,55.6
2019-05-11T04:52:30.578Z,56.9
2019-05-11T04:53:31.282Z,57.4
2019-05-11T04:54:31.994Z,52.3
2019-05-11T04:55:32.695Z,48.2
2019-05-11T04:56:33.408Z,49.0
2019-05-11T04:58:49.640Z,52.1
2019-05-11T04:59:50.342Z,49.0
2019-05-11T05:00:51.044Z,52.8
2019-05-11T05:01:51.742Z,47.7
2019-05-11T05:02:52.451Z,43.2
2019-05-11T05:03:54.090Z,46.3
2019-05-11T05:06:21.745Z,47.7
2019-05-11T05:07:12.325Z,40.4
2019-05-11T05:08:11.643Z,39.2
2019-05-11T05:09:12.370Z,42.3
2019-05-11T05:10:14.211Z,45.2
2019-05-11T05:11:13.753Z,44.3
2019-05-11T05:12:15.702Z,43.3
2019-05-11T05:13:15.130Z,45.6
2019-05-11T05:14:15.833Z,46.9
2019-05-11T05:15:16.531Z,45.6
2019-05-11T05:17:32.814Z,45.4
2019-05-11T05:18:33.533Z,46.0
2019-05-11T05:22:05.173Z,44.6
2019-05-11T05:23:05.867Z,44.9
2019-05-11T05:24:06.561Z,45.3
2019-05-11T05:25:07.259Z,44.2
2019-05-11T05:26:07.957Z,41.8
2019-05-11T05:27:08.651Z,45.9
2019-05-11T05:28:09.330Z,43.1
2019-05-11T05:30:25.532Z,45.2
2019-05-11T05:31:26.200Z,45.7
2019-05-11T05:32:26.896Z,44.8
2019-05-11T05:33:27.602Z,44.5
2019-05-11T05:34:28.292Z,43.7
2019-05-11T05:35:29.037Z,45.7
2019-05-11T05:36:29.740Z,43.3
2019-05-11T05:38:45.912Z,42.7
2019-05-11T05:39:46.607Z,40.0
2019-05-11T05:40:47.302Z,42.0
2019-05-11T05:41:56.514Z,40.8
2019-05-11T05:42:48.694Z,43.0
2019-05-11T05:43:49.397Z,42.0
2019-05-11T05:44:50.098Z,42.0
2019-05-11T05:45:50.796Z,42.5
2019-05-11T05:48:06.969Z,42.8
2019-05-11T05:49:07.696Z,45.0
2019-05-11T05:50:08.399Z,41.0
2019-05-11T05:51:09.059Z,39.7
2019-05-11T05:52:09.820Z,39.6
2019-05-11T05:53:10.471Z,37.3
2019-05-11T05:54:11.171Z,37.6
2019-05-11T05:55:11.863Z,39.7
2019-05-11T05:57:28.040Z,37.4
2019-05-11T05:58:28.743Z,39.1
2019-05-11T05:59:29.428Z,38.0
2019-05-11T06:00:30.131Z,37.8
2019-05-11T06:01:30.826Z,37.1
2019-05-11T06:02:31.515Z,37.5
2019-05-11T06:03:32.213Z,38.1
2019-05-11T06:04:32.889Z,36.9
2019-05-11T06:05:33.585Z,37.2
2019-05-11T06:06:34.280Z,36.9
2019-05-11T06:07:34.981Z,36.5
2019-05-11T06:08:35.684Z,36.6
2019-05-11T06:10:51.911Z,38.5
2019-05-11T06:11:52.617Z,35.6
2019-05-11T06:12:53.312Z,35.8
2019-05-11T06:13:54.004Z,36.4
2019-05-11T06:14:54.704Z,35.0
2019-05-11T06:17:10.890Z,35.1
2019-05-11T06:18:11.603Z,33.6
2019-05-11T06:19:12.269Z,33.6
2019-05-11T06:20:12.970Z,35.2
2019-05-11T06:21:13.672Z,34.5
2019-05-11T06:22:14.362Z,34.4
2019-05-11T06:23:15.062Z,35.5
2019-05-11T06:24:15.753Z,37.0
2019-05-11T06:25:16.445Z,35.6
2019-05-11T06:26:17.105Z,32.1
2019-05-11T06:28:33.295Z,32.7
2019-05-11T06:29:33.987Z,31.6
2019-05-11T06:30:34.689Z,33.1
2019-05-11T06:31:35.394Z,30.3
2019-05-11T06:32:36.098Z,31.7
2019-05-11T06:33:36.787Z,31.0
2019-05-11T06:34:37.487Z,31.2
2019-05-11T06:36:53.666Z,28.1
2019-05-11T06:37:54.367Z,30.5
2019-05-11T06:38:55.122Z,28.8
2019-05-11T06:39:55.857Z,28.0
2019-05-11T06:40:56.551Z,27.0
2019-05-11T06:41:57.240Z,26.4
2019-05-11T06:42:57.954Z,24.2
2019-05-11T06:45:14.131Z,22.4
2019-05-11T06:46:14.831Z,22.9
2019-05-11T06:47:15.526Z,23.3
2019-05-11T06:48:16.242Z,22.5
2019-05-11T06:49:16.936Z,23.8
2019-05-11T06:50:17.635Z,23.3
2019-05-11T06:51:18.336Z,22.5
2019-05-11T06:52:19.039Z,20.6
2019-05-11T06:53:19.793Z,19.0
2019-05-11T06:54:20.464Z,19.9
2019-05-11T06:56:36.653Z,18.4
2019-05-11T06:57:37.364Z,16.9
2019-05-11T06:58:38.060Z,16.1
2019-05-11T06:59:38.761Z,16.5
2019-05-11T07:00:39.461Z,15.5
2019-05-11T07:01:40.175Z,15.6
2019-05-11T07:02:40.870Z,16.7
2019-05-11T07:03:41.569Z,16.0
2019-05-11T07:04:42.299Z,14.6
2019-05-11T07:05:42.969Z,15.4
2019-05-11T07:06:43.668Z,15.4
2019-05-11T07:07:47.405Z,16.0
2019-05-11T07:08:45.068Z,14.9
2019-05-11T07:09:45.759Z,14.1
2019-05-11T07:10:46.461Z,13.6
2019-05-11T07:11:47.129Z,13.4
2019-05-11T07:12:47.831Z,13.5
2019-05-11T07:13:48.543Z,13.6
2019-05-11T07:14:49.299Z,12.8
2019-05-11T07:15:49.948Z,13.2
2019-05-11T07:16:50.637Z,13.4
2019-05-11T07:17:51.334Z,13.2
2019-05-11T07:18:52.030Z,12.3
2019-05-11T07:21:08.212Z,11.8
2019-05-11T07:22:08.916Z,11.0
2019-05-11T07:23:09.630Z,10.7
2019-05-11T07:24:10.343Z,12.2
2019-05-11T07:25:11.040Z,12.0
2019-05-11T07:26:12.223Z,10.9
2019-05-11T07:27:12.845Z,10.8
2019-05-11T07:28:13.555Z,10.0
2019-05-11T07:30:29.749Z,11.1
2019-05-11T07:31:30.444Z,10.6
2019-05-11T07:32:31.151Z,10.1
2019-05-11T07:33:31.858Z,10.8
2019-05-11T07:34:32.551Z,11.7
2019-05-11T07:35:33.252Z,10.7
2019-05-11T07:36:33.956Z,9.8
2019-05-11T07:37:34.650Z,9.8
2019-05-11T07:38:35.354Z,10.6
2019-05-11T07:39:38.185Z,9.7
2019-05-11T07:40:38.514Z,10.0
2019-05-11T07:41:38.710Z,8.9
2019-05-11T07:42:38.343Z,9.3
2019-05-11T07:43:38.852Z,10.6
2019-05-11T07:44:41.754Z,9.6
2019-05-11T07:46:55.733Z,9.9
2019-05-11T07:47:58.778Z,11.2
2019-05-11T07:48:58.502Z,10.5
2019-05-11T07:49:58.072Z,10.2
2019-05-11T07:50:58.591Z,10.3
2019-05-11T07:51:59.229Z,9.8
2019-05-11T07:54:15.422Z,10.1
2019-05-11T07:55:18.345Z,11.0
2019-05-11T07:56:18.711Z,10.8
2019-05-11T07:57:18.629Z,10.9
2019-05-11T07:58:20.333Z,9.5
2019-05-11T07:59:18.921Z,8.8
2019-05-11T08:00:19.646Z,9.0
2019-05-11T08:02:35.819Z,10.3
2019-05-11T08:03:38.697Z,10.3
2019-05-11T08:04:37.902Z,10.9
2019-05-11T08:05:38.521Z,10.1
2019-05-11T08:06:39.190Z,10.1
2019-05-11T08:07:39.329Z,10.0
2019-05-11T08:08:40.112Z,10.5
2019-05-11T08:13:28.208Z,11.5
2019-05-11T08:14:28.832Z,11.9
2019-05-11T08:15:28.638Z,11.4
2019-05-11T08:16:29.438Z,11.9
2019-05-11T08:17:30.042Z,12.1
2019-05-11T08:18:30.750Z,12.5
2019-05-11T08:20:47.860Z,11.9
2019-05-11T08:21:48.194Z,10.9
2019-05-11T08:22:48.460Z,10.9
2019-05-11T08:23:49.043Z,10.5
2019-05-11T08:24:49.752Z,10.3
2019-05-11T08:25:50.462Z,10.8
2019-05-11T08:26:51.158Z,11.1
2019-05-11T08:27:51.861Z,11.4
2019-05-11T08:30:08.555Z,11.0
2019-05-11T08:31:09.227Z,11.6
2019-05-11T08:32:09.930Z,10.9
2019-05-11T08:33:10.657Z,11.4
2019-05-11T08:34:11.368Z,11.5
2019-05-11T08:35:12.150Z,11.4
2019-05-11T08:36:12.852Z,11.9
2019-05-11T08:38:29.042Z,11.1
2019-05-11T08:39:29.742Z,10.0
2019-05-11T08:40:30.452Z,11.3
2019-05-11T08:41:31.151Z,12.0
2019-05-11T08:42:31.839Z,11.5
2019-05-11T08:43:32.532Z,9.1
2019-05-11T08:44:33.283Z,10.0
2019-05-11T08:45:33.948Z,10.3
2019-05-11T08:46:34.712Z,11.0
2019-05-11T08:48:50.834Z,10.5
2019-05-11T08:49:51.540Z,10.6
2019-05-11T08:50:52.242Z,10.1
2019-05-11T08:51:52.950Z,11.6
2019-05-11T08:52:53.650Z,10.4
2019-05-11T08:56:25.348Z,9.1
2019-05-11T08:57:28.456Z,10.1
2019-05-11T08:58:27.777Z,10.3
2019-05-11T09:00:42.934Z,8.4
2019-05-11T09:01:44.787Z,9.7
2019-05-11T09:02:46.858Z,9.5
2019-05-11T09:03:45.029Z,8.6
2019-05-11T09:04:48.188Z,9.5
2019-05-11T09:05:48.426Z,10.1
2019-05-11T09:06:47.970Z,10.3
2019-05-11T09:09:03.270Z,10.5
2019-05-11T09:10:03.973Z,9.9
2019-05-11T09:11:04.675Z,10.2
2019-05-11T09:12:07.669Z,11.3
2019-05-11T09:13:08.058Z,10.8
2019-05-11T09:14:08.402Z,9.2
2019-05-11T09:15:08.743Z,9.8
2019-05-11T09:16:08.171Z,9.9
2019-05-11T09:18:24.428Z,9.3
2019-05-11T09:19:25.125Z,8.8
2019-05-11T09:20:28.333Z,9.2
2019-05-11T09:21:28.112Z,10.5
2019-05-11T09:22:28.517Z,9.7
2019-05-11T09:23:37.010Z,7.3
2019-05-11T09:25:47.675Z,7.7
2019-05-11T09:26:47.908Z,8.0
2019-05-11T09:27:48.292Z,8.3
2019-05-11T09:28:48.049Z,8.0
2019-05-11T09:29:48.745Z,7.9
2019-05-11T09:30:49.419Z,7.2
2019-05-11T09:31:50.132Z,7.3
2019-05-11T09:34:08.771Z,7.1
2019-05-11T09:35:08.301Z,6.4
2019-05-11T09:36:08.563Z,7.3
2019-05-11T09:37:08.393Z,7.4
2019-05-11T09:38:09.099Z,7.1
2019-05-11T09:39:09.792Z,6.6
2019-05-11T09:40:10.494Z,6.8
2019-05-11T09:44:57.883Z,6.6
2019-05-11T09:45:58.418Z,6.0
2019-05-11T09:47:02.424Z,5.7
2019-05-11T09:47:59.813Z,6.4
2019-05-11T09:49:00.505Z,6.2
2019-05-11T09:50:01.210Z,6.4
2019-05-11T09:51:01.919Z,6.5
2019-05-11T09:52:02.613Z,6.7
2019-05-11T09:54:18.798Z,7.0
2019-05-11T09:55:19.493Z,6.1
2019-05-11T09:56:20.190Z,6.6
2019-05-11T09:57:20.892Z,6.6
2019-05-11T09:58:21.599Z,6.5
2019-05-11T09:59:22.290Z,6.5
2019-05-11T10:00:23.002Z,6.3
2019-05-11T10:01:23.692Z,5.7
2019-05-11T10:03:39.870Z,5.3
2019-05-11T10:04:40.904Z,6.2
2019-05-11T10:05:41.505Z,5.5
2019-05-11T10:07:58.933Z,6.2
2019-05-11T10:10:13.867Z,5.9
2019-05-11T10:11:14.530Z,6.5
2019-05-11T10:13:30.711Z,6.1
2019-05-11T10:14:31.411Z,6.1
2019-05-11T10:15:32.079Z,6.2
2019-05-11T10:16:32.784Z,5.7
2019-05-11T10:17:33.489Z,5.5
2019-05-11T10:18:34.191Z,5.4
2019-05-11T10:19:35.295Z,5.8
2019-05-11T10:20:35.904Z,5.6
2019-05-11T10:22:52.088Z,6.0
2019-05-11T10:23:52.791Z,6.0
2019-05-11T10:24:53.494Z,5.7
2019-05-11T10:25:54.198Z,5.4
2019-05-11T10:26:54.899Z,5.6
2019-05-11T10:30:28.011Z,5.0
2019-05-11T10:31:28.527Z,5.4
2019-05-11T10:33:43.420Z,5.1
2019-05-11T10:34:44.126Z,6.0
2019-05-11T10:35:44.834Z,5.2
2019-05-11T10:36:45.537Z,5.2
2019-05-11T10:37:47.764Z,4.9
2019-05-11T10:38:48.634Z,6.5
2019-05-11T10:39:48.814Z,5.5
2019-05-11T10:40:48.339Z,5.4
2019-05-11T10:43:04.480Z,5.6
2019-05-11T10:44:05.190Z,5.3
2019-05-11T10:45:05.885Z,5.0
2019-05-11T10:46:17.037Z,5.1
2019-05-11T10:47:08.220Z,4.3
2019-05-11T10:48:08.825Z,5.2
2019-05-11T10:49:08.692Z,5.0
2019-05-11T10:50:09.391Z,5.0
2019-05-11T10:51:10.096Z,6.1
2019-05-11T10:53:27.907Z,4.5
2019-05-11T10:54:28.681Z,5.3
2019-05-11T10:55:28.043Z,5.1
2019-05-11T10:56:28.633Z,4.8
2019-05-11T10:57:29.072Z,5.1
2019-05-11T10:58:29.776Z,4.9
2019-05-11T10:59:30.478Z,5.2
2019-05-11T11:00:31.182Z,5.2
2019-05-11T11:01:31.887Z,4.9
2019-05-11T11:03:48.477Z,4.7
2019-05-11T11:04:48.782Z,4.6
2019-05-11T11:05:49.475Z,4.8
2019-05-11T11:06:50.181Z,4.9
2019-05-11T11:07:50.887Z,4.7
2019-05-11T11:08:51.588Z,4.0
2019-05-11T11:09:52.295Z,4.6
2019-05-11T11:12:08.533Z,5.5
2019-05-11T11:13:09.199Z,5.1
2019-05-11T11:14:09.951Z,5.3
2019-05-11T11:15:10.651Z,4.7
2019-05-11T11:16:11.349Z,4.6
2019-05-11T11:17:12.052Z,4.9
2019-05-11T11:18:12.770Z,4.8
2019-05-11T11:19:13.477Z,4.4
2019-05-11T11:20:14.151Z,4.5
2019-05-11T11:22:39.773Z,5.3
2019-05-11T11:23:31.040Z,4.7
2019-05-11T11:24:31.741Z,4.7
2019-05-11T11:25:32.410Z,5.2
2019-05-11T11:26:33.107Z,4.3
2019-05-11T11:27:33.808Z,5.0
2019-05-11T11:28:34.509Z,5.2
2019-05-11T11:29:35.210Z,5.1
2019-05-11T11:30:37.862Z,4.9
2019-05-11T11:31:38.015Z,5.1
2019-05-11T11:33:55.509Z,5.1
2019-05-11T11:34:53.486Z,4.7
2019-05-11T11:35:54.189Z,4.7
2019-05-11T11:39:28.041Z,4.6
2019-05-11T11:40:28.161Z,4.6
2019-05-11T11:41:29.854Z,4.9
2019-05-11T11:42:28.335Z,5.1
2019-05-11T11:43:28.866Z,4.4
2019-05-11T11:45:44.881Z,5.2
2019-05-11T11:46:52.049Z,5.0
2019-05-11T11:47:49.047Z,4.9
2019-05-11T11:48:48.857Z,4.3
2019-05-11T11:49:47.698Z,4.6
2019-05-11T11:50:48.365Z,4.6
2019-05-11T11:51:49.074Z,4.8
2019-05-11T11:52:49.771Z,4.0
2019-05-11T11:53:50.472Z,4.0
2019-05-11T11:56:08.405Z,4.6
2019-05-11T11:57:07.787Z,4.2
2019-05-11T11:58:08.377Z,4.8
2019-05-11T11:59:08.755Z,4.5
2019-05-11T12:00:09.461Z,4.5
2019-05-11T12:01:10.161Z,4.6
2019-05-11T12:02:10.901Z,4.5
2019-05-11T12:03:11.563Z,4.6
2019-05-11T12:05:28.327Z,4.4
2019-05-11T12:06:28.457Z,4.2
2019-05-11T12:07:29.166Z,3.9
2019-05-11T12:08:29.871Z,3.9
2019-05-11T12:09:30.570Z,4.3
2019-05-11T12:10:31.287Z,4.6
2019-05-11T12:11:31.979Z,4.2
2019-05-11T12:12:32.685Z,4.5
2019-05-11T12:14:48.874Z,4.2
2019-05-11T12:15:49.582Z,3.9
2019-05-11T12:17:03.897Z,4.1
2019-05-11T12:17:50.984Z,4.4
2019-05-11T12:18:51.684Z,4.2
2019-05-11T12:19:52.391Z,3.7
2019-05-11T12:20:53.092Z,4.1
2019-05-11T12:21:53.793Z,4.2
2019-05-11T12:26:40.951Z,4.2
2019-05-11T12:27:41.655Z,4.4
2019-05-11T12:28:42.358Z,4.6
2019-05-11T12:29:43.030Z,4.8
2019-05-11T12:30:43.733Z,3.7
2019-05-11T12:31:44.435Z,4.3
2019-05-11T12:32:45.147Z,4.2
2019-05-11T12:33:48.221Z,4.2
2019-05-11T12:34:48.195Z,4.6
2019-05-11T12:35:48.194Z,4.4
2019-05-11T12:38:03.441Z,3.8
2019-05-11T12:39:04.141Z,4.2
2019-05-11T12:40:04.843Z,4.4
2019-05-11T12:41:05.551Z,3.5
2019-05-11T12:42:08.504Z,4.4
2019-05-11T12:43:08.148Z,3.5
2019-05-11T12:44:08.301Z,4.3
2019-05-11T12:45:08.370Z,3.9
2019-05-11T12:47:25.276Z,3.7
2019-05-11T12:48:25.344Z,4.2
2019-05-11T12:49:26.056Z,4.1
2019-05-11T12:50:28.578Z,4.3
2019-05-11T12:51:27.778Z,3.9
2019-05-11T12:52:28.436Z,4.1
2019-05-11T12:53:29.143Z,4.3
2019-05-11T12:54:29.841Z,4.3
2019-05-11T12:55:30.546Z,4.3
2019-05-11T12:57:47.756Z,4.6
2019-05-11T12:58:49.118Z,4.8
2019-05-11T12:59:48.746Z,5.3
2019-05-11T13:00:48.846Z,5.0
2019-05-11T13:01:49.580Z,4.2
2019-05-11T13:02:50.335Z,4.7
2019-05-11T13:03:51.046Z,4.4
2019-05-11T13:04:51.741Z,4.0
2019-05-11T13:07:08.739Z,4.3
2019-05-11T13:08:08.642Z,3.9
2019-05-11T13:09:09.341Z,3.3
2019-05-11T13:10:10.045Z,4.4
2019-05-11T13:11:10.744Z,3.9
2019-05-11T13:12:11.458Z,3.4
2019-05-11T13:13:12.167Z,3.7
2019-05-11T13:14:13.363Z,4.3
2019-05-11T13:16:29.510Z,3.9
2019-05-11T13:17:36.961Z,3.8
2019-05-11T13:18:30.872Z,3.9
2019-05-11T13:19:31.577Z,3.6
2019-05-11T13:20:32.288Z,4.1
2019-05-11T13:21:32.984Z,3.8
2019-05-11T13:22:33.698Z,4.1
2019-05-11T13:24:49.884Z,3.8
2019-05-11T13:25:50.582Z,3.9
2019-05-11T13:26:51.289Z,4.0
2019-05-11T13:27:52.002Z,3.8
2019-05-11T13:28:52.707Z,3.8
2019-05-11T13:29:53.414Z,3.8
2019-05-11T13:30:54.120Z,3.6
2019-05-11T13:33:10.315Z,3.7
2019-05-11T13:34:11.019Z,4.3
2019-05-11T13:35:11.724Z,3.5
2019-05-11T13:36:12.438Z,4.2
2019-05-11T13:37:13.101Z,3.8
2019-05-11T13:38:13.794Z,3.9
2019-05-11T13:39:14.497Z,4.0
2019-05-11T13:41:30.737Z,4.5
2019-05-11T13:42:31.443Z,3.9
2019-05-11T13:43:32.141Z,3.3
2019-05-11T13:44:32.852Z,4.1
2019-05-11T13:45:33.559Z,4.0
2019-05-11T13:46:34.314Z,4.2
2019-05-11T13:47:48.434Z,3.7
2019-05-11T13:49:51.208Z,3.6
2019-05-11T13:50:51.911Z,4.4
2019-05-11T13:51:52.619Z,3.9
2019-05-11T13:52:53.328Z,3.5
2019-05-11T13:53:54.029Z,4.5
2019-05-11T13:57:25.710Z,3.9
2019-05-11T13:58:27.804Z,3.9
2019-05-11T13:59:28.026Z,4.3
2019-05-11T14:00:28.873Z,3.5
2019-05-11T14:01:28.516Z,3.8
2019-05-11T14:02:29.214Z,4.2
2019-05-11T14:03:29.921Z,4.3
2019-05-11T14:05:48.144Z,4.7
2019-05-11T14:06:48.244Z,4.6
2019-05-11T14:07:48.261Z,4.5
2019-05-11T14:08:48.365Z,4.1
2019-05-11T14:09:48.923Z,4.4
2019-05-11T14:10:49.628Z,4.3
2019-05-11T14:13:05.826Z,4.1
2019-05-11T14:14:07.750Z,4.4
2019-05-11T14:15:08.509Z,4.0
2019-05-11T14:16:08.120Z,4.1
2019-05-11T14:17:08.674Z,3.6
2019-05-11T14:18:11.888Z,4.4
2019-05-11T14:19:10.041Z,4.6
2019-05-11T14:20:10.749Z,4.5
2019-05-11T14:22:28.198Z,4.3
2019-05-11T14:23:31.093Z,4.3
2019-05-11T14:24:28.934Z,4.0
2019-05-11T14:25:29.108Z,4.1
2019-05-11T14:26:29.797Z,4.0
2019-05-11T14:27:30.495Z,4.4
2019-05-11T14:28:31.191Z,4.9
2019-05-11T14:29:31.960Z,4.3
2019-05-11T14:31:48.788Z,4.3
2019-05-11T14:32:48.796Z,4.7
2019-05-11T14:33:49.500Z,4.3
2019-05-11T14:34:50.203Z,4.5
2019-05-11T14:35:50.908Z,4.3
2019-05-11T14:39:22.588Z,4.9
2019-05-11T14:40:23.306Z,4.9
2019-05-11T14:41:24.013Z,4.9
2019-05-11T14:43:40.197Z,5.4
2019-05-11T14:44:40.899Z,4.5
2019-05-11T14:45:41.602Z,5.3
2019-05-11T14:46:42.327Z,4.8
2019-05-11T14:47:43.016Z,4.8
2019-05-11T14:48:43.727Z,4.9
2019-05-11T14:49:44.403Z,5.2
2019-05-11T14:52:00.586Z,5.9
2019-05-11T14:53:01.298Z,5.3
2019-05-11T14:54:02.001Z,5.9
2019-05-11T14:55:02.718Z,5.8
2019-05-11T14:56:03.418Z,4.5
2019-05-11T14:57:04.093Z,5.9
2019-05-11T14:58:04.788Z,5.2
2019-05-11T14:59:05.502Z,5.7
2019-05-11T15:01:21.686Z,6.1
2019-05-11T15:02:22.398Z,5.4
2019-05-11T15:03:23.089Z,5.0
2019-05-11T15:04:23.798Z,6.0
2019-05-11T15:05:24.499Z,6.0
2019-05-11T15:06:25.208Z,5.1
2019-05-11T15:07:28.195Z,5.8
2019-05-11T15:08:28.650Z,5.9
2019-05-11T15:10:43.764Z,5.1
2019-05-11T15:11:44.445Z,5.3
2019-05-11T15:12:45.159Z,6.4
2019-05-11T15:13:45.861Z,5.2
2019-05-11T15:14:48.557Z,6.0
2019-05-11T15:15:48.728Z,5.1
2019-05-11T15:16:48.732Z,5.0
2019-05-11T15:17:49.424Z,5.7
2019-05-11T15:18:49.380Z,5.1
2019-05-11T15:21:05.578Z,5.8
2019-05-11T15:22:08.541Z,6.7
2019-05-11T15:23:08.789Z,5.8
2019-05-11T15:24:09.108Z,5.8
2019-05-11T15:25:08.415Z,5.5
2019-05-11T15:26:10.043Z,5.3
2019-05-11T15:27:09.805Z,5.3
2019-05-11T15:29:25.997Z,5.6
2019-05-11T15:30:28.668Z,5.8
2019-05-11T15:31:27.847Z,5.0
2019-05-11T15:32:28.492Z,4.5
2019-05-11T15:33:28.765Z,5.0
2019-05-11T15:34:29.468Z,4.7
2019-05-11T15:35:30.172Z,5.0
2019-05-11T15:37:47.853Z,4.6
2019-05-11T15:38:48.147Z,4.5
2019-05-11T15:39:48.373Z,4.1
2019-05-11T15:40:48.845Z,4.3
2019-05-11T15:41:49.173Z,4.2
2019-05-11T15:42:49.875Z,5.0
2019-05-11T15:43:50.583Z,4.3
2019-05-11T15:46:06.772Z,3.9
2019-05-11T15:47:07.847Z,3.8
2019-05-11T15:48:08.601Z,4.2
2019-05-11T15:49:09.287Z,4.5
2019-05-11T15:50:10.511Z,4.7
2019-05-11T15:51:11.112Z,4.0
2019-05-11T15:53:27.313Z,3.7
2019-05-11T15:54:28.813Z,4.0
2019-05-11T15:55:28.711Z,3.6
2019-05-11T15:56:29.892Z,3.5
2019-05-11T15:57:30.592Z,3.0
2019-05-11T15:58:31.299Z,3.5
2019-05-11T15:59:32.008Z,3.0
2019-05-11T16:01:48.891Z,3.1
2019-05-11T16:02:49.236Z,2.8
2019-05-11T16:03:50.177Z,2.7
2019-05-11T16:04:50.708Z,3.1
2019-05-11T16:05:51.324Z,3.1
2019-05-11T16:06:52.019Z,2.9
2019-05-11T16:07:52.721Z,3.0
2019-05-11T16:08:53.436Z,3.4
2019-05-11T16:09:54.130Z,2.4
2019-05-11T16:12:10.320Z,2.9
2019-05-11T16:13:11.031Z,2.8
2019-05-11T16:14:11.740Z,3.3
2019-05-11T16:15:12.452Z,3.3
2019-05-11T16:16:13.156Z,3.7
2019-05-11T16:17:13.864Z,2.9
2019-05-11T16:18:14.570Z,3.1
2019-05-11T16:19:15.484Z,3.9
2019-05-11T16:21:31.469Z,3.7
2019-05-11T16:22:32.176Z,3.9
2019-05-11T16:23:32.933Z,3.3
2019-05-11T16:24:33.587Z,3.1